Ashton, South Dakota
Current Conditions -  °F | °C
As of 8:53 AM on Friday 24 Oct 2014 (Local Time) from KABR Reporting Station
Clear Clear  
Wind Chill: 37°   Ceiling: Unl
Heat Index: 37°   Visibility: 10mi
Dew Point: 35°   Wind: 3mph
Humidity: 93%   Direction: 170°S
Pressure: 29.86"   Gusts: NA
Location:  44.99°N, 98.5°W
Report Text: KABR 241353Z AUTO 17003KT 10SM CLR 03/02 A2986 RMK AO2 SLP118 T00280017
Loading
Personal Weather Stations






























Interactive Weather Map
Tropical Storm Tracking
New forecast layout! Learn more

10-Day Weather Forecast

Advertisements
Track Severe Weather on mobile